Flight Track Log - Related Links

Times and Time Zones

All times are in EDT time to prevent confusion due to time zone crossing. See the LNE516 flight status page for this flight to view local times or setup timezone preferences in your user account.

Time Position Orientation Groundspeed Altitude Reporting Facility
EDT Latitude Longitude Course Direction KTS MPH feet Rate Location/Type
Thu 04:41:23 AM 23.1617 -81.2464 North 451 519 36,000  Level Miami Center
Thu 04:42:21 AM 23.2789 -81.2392 North 433 498 36,000  Level Miami Center
Thu 04:43:22 AM 23.3917 -81.2361 North 419 482 36,000  Level Miami Center
Thu 04:44:22 AM 23.5089 -81.2333 North 414 476 36,000  Level Miami Center
Thu 04:45:22 AM 23.6258 -81.2283 North 414 476 36,000  Level Miami Center
Thu 04:46:23 AM 23.7431 -81.2233 North 414 476 36,000  Level Miami Center
Thu 04:47:22 AM 23.8600 -81.2228 360° North 414 476 36,000  Level Miami Center
Thu 04:49:00 AM 0.0466 -78.5004 12° North  Level Estimated
Thu 04:56:00 AM 0.8512 -78.5525 North  Level Estimated
Thu 04:57:00 AM 0.9661 -78.5599 North  Level Estimated
Thu 04:58:00 AM 1.0811 -78.5673 North  Level Estimated
Thu 04:59:00 AM 1.1958 -78.5780 355° North  Level FlightAware Approximate
Thu 05:00:00 AM 1.3107 -78.5854 North  Level Estimated
Thu 05:01:00 AM 1.4257 -78.5929 61° Northeast  Level Estimated
Thu 05:02:00 AM 1.5406 -78.6003 74° East  Level Estimated
Thu 05:03:00 AM 1.6555 -78.6077 48° Northeast  Level Estimated
Thu 05:04:00 AM 1.7705 -78.6152 72° East  Level Estimated
Thu 05:05:00 AM 1.8854 -78.6226 61° Northeast  Level Estimated
Thu 05:06:00 AM 2.0003 -78.6300 70° East  Level Estimated
Thu 05:07:00 AM 2.1153 -78.6375 77° East  Level Estimated
Thu 05:08:00 AM 2.2302 -78.6449 77° East  Level Estimated
Thu 05:09:00 AM 2.3452 -78.6523 77° East  Level Estimated
Thu 05:10:00 AM 2.4601 -78.6598 77° East  Level Estimated
Thu 05:11:00 AM 2.5751 -78.6672 77° East  Level Estimated
Thu 05:12:00 AM 2.6900 -78.6747 77° East  Level Estimated
Thu 05:13:00 AM 2.8049 -78.6821 77° East  Level Estimated
Thu 05:14:00 AM 2.9199 -78.6895 77° East  Level Estimated
Thu 05:15:00 AM 3.0348 -78.6970 77° East  Level Estimated
Thu 05:16:00 AM 3.1497 -78.7044 77° East  Level Estimated
Thu 05:17:00 AM 3.2647 -78.7119 77° East  Level Estimated
Thu 05:18:00 AM 3.3796 -78.7193 77° East  Level Estimated
Thu 05:19:00 AM 3.4946 -78.7268 77° East  Level Estimated
Thu 05:20:00 AM 3.6095 -78.7342 77° East  Level Estimated
Thu 05:21:00 AM 3.7245 -78.7417 77° East  Level Estimated
Thu 05:22:00 AM 3.8394 -78.7492 77° East  Level Estimated
Thu 05:23:00 AM 3.9543 -78.7566 77° East  Level Estimated

Login

Don't have an account? Register now (free) for customized features, flight alerts, and more!